createdAt,value
2023-04-29T00:01:11.143Z,100.00
2023-04-29T00:03:39.285Z,100.00
2023-04-29T00:06:08.873Z,100.00
2023-04-29T00:08:36.985Z,100.00
2023-04-29T00:11:04.911Z,100.00
2023-04-29T00:13:32.999Z,100.00
2023-04-29T00:16:01.129Z,100.00
2023-04-29T00:18:29.032Z,100.00
2023-04-29T00:20:56.900Z,100.00
2023-04-29T00:23:26.755Z,100.00
2023-04-29T00:25:55.326Z,100.00
2023-04-29T00:28:23.958Z,100.00
2023-04-29T00:30:52.305Z,100.00
2023-04-29T00:33:20.442Z,100.00
2023-04-29T00:35:48.325Z,100.00
2023-04-29T00:38:16.438Z,100.00
2023-04-29T00:40:46.290Z,100.00
2023-04-29T00:43:14.593Z,100.00
2023-04-29T00:45:42.484Z,100.00
2023-04-29T00:48:10.449Z,100.00
2023-04-29T00:50:38.964Z,100.00
2023-04-29T00:53:06.932Z,100.00
2023-04-29T00:55:36.627Z,100.00
2023-04-29T00:58:05.884Z,100.00
2023-04-29T01:00:34.147Z,100.00
2023-04-29T01:03:02.714Z,100.00
2023-04-29T01:05:30.702Z,100.00
2023-04-29T01:08:11.330Z,100.00
2023-04-29T01:10:45.318Z,100.00
2023-04-29T01:13:19.261Z,100.00
2023-04-29T01:15:56.705Z,100.00
2023-04-29T01:18:29.024Z,100.00
2023-04-29T01:20:59.036Z,100.00
2023-04-29T01:23:29.271Z,100.00
2023-04-29T01:25:58.333Z,100.00
2023-04-29T01:29:00.360Z,100.00
2023-04-29T01:31:33.763Z,100.00
2023-04-29T01:34:10.544Z,100.00
2023-04-29T01:36:54.334Z,100.00
2023-04-29T01:39:32.386Z,100.00
2023-04-29T01:42:19.309Z,100.00
2023-04-29T01:44:51.081Z,100.00
2023-04-29T01:47:22.648Z,100.00
2023-04-29T01:49:54.074Z,100.00
2023-04-29T01:52:23.256Z,100.00
2023-04-29T01:54:57.565Z,100.00
2023-04-29T01:57:29.133Z,100.00
2023-04-29T02:00:12.676Z,100.00
2023-04-29T02:02:48.096Z,100.00
2023-04-29T02:05:32.240Z,100.00
2023-04-29T02:08:00.244Z,100.00
2023-04-29T02:10:29.712Z,100.00
2023-04-29T02:13:13.468Z,100.00
2023-04-29T02:15:42.248Z,100.00
2023-04-29T02:18:10.670Z,100.00
2023-04-29T02:20:38.561Z,100.00
2023-04-29T02:23:06.805Z,100.00
2023-04-29T02:25:36.421Z,100.00
2023-04-29T02:28:04.286Z,100.00
2023-04-29T02:30:32.909Z,100.00
2023-04-29T02:33:01.184Z,100.00
2023-04-29T02:35:29.255Z,100.00
2023-04-29T02:37:57.489Z,100.00
2023-04-29T02:40:27.092Z,100.00
2023-04-29T02:42:56.597Z,100.00
2023-04-29T02:45:24.527Z,100.00
2023-04-29T02:47:53.004Z,100.00
2023-04-29T02:50:20.954Z,100.00
2023-04-29T02:52:50.082Z,100.00
2023-04-29T02:55:19.030Z,100.00
2023-04-29T02:57:46.985Z,100.00
2023-04-29T03:00:16.273Z,100.00
2023-04-29T03:02:44.379Z,100.00
2023-04-29T03:05:12.290Z,100.00
2023-04-29T03:07:40.676Z,100.00
2023-04-29T03:10:10.472Z,100.00
2023-04-29T03:12:39.393Z,100.00
2023-04-29T03:15:10.509Z,100.00
2023-04-29T03:17:39.999Z,100.00
2023-04-29T03:20:10.756Z,100.00
2023-04-29T03:22:38.555Z,100.00
2023-04-29T03:25:08.178Z,100.00
2023-04-29T03:27:36.443Z,100.00
2023-04-29T03:30:04.495Z,100.00
2023-04-29T03:32:32.841Z,100.00
2023-04-29T03:35:03.415Z,100.00
2023-04-29T03:37:39.446Z,100.00
2023-04-29T03:40:19.725Z,100.00
2023-04-29T03:42:51.159Z,100.00
2023-04-29T03:45:20.056Z,100.00
2023-04-29T03:47:47.957Z,100.00
2023-04-29T03:50:17.546Z,100.00
2023-04-29T03:52:45.785Z,100.00
2023-04-29T03:55:17.733Z,100.00
2023-04-29T03:57:46.972Z,100.00
2023-04-29T04:00:17.752Z,100.00
2023-04-29T04:02:49.092Z,100.00
2023-04-29T04:05:21.294Z,100.00
2023-04-29T04:07:54.592Z,100.00
2023-04-29T04:10:48.443Z,100.00
2023-04-29T04:13:43.176Z,100.00
2023-04-29T04:16:12.065Z,100.00
2023-04-29T04:18:40.394Z,100.00
2023-04-29T04:21:11.366Z,100.00
2023-04-29T04:23:41.377Z,100.00
2023-04-29T04:26:11.785Z,100.00
2023-04-29T04:28:54.762Z,100.00
2023-04-29T04:31:31.995Z,100.00
2023-04-29T04:34:01.013Z,100.00
2023-04-29T04:36:32.705Z,100.00
2023-04-29T04:39:00.896Z,100.00
2023-04-29T04:41:31.649Z,100.00
2023-04-29T04:43:59.789Z,100.00
2023-04-29T04:46:39.680Z,100.00
2023-04-29T04:49:14.237Z,100.00
2023-04-29T04:51:51.591Z,100.00
2023-04-29T04:54:19.548Z,100.00
2023-04-29T04:56:52.245Z,100.00
2023-04-29T04:59:20.994Z,100.00
2023-04-29T05:01:48.824Z,100.00
2023-04-29T05:04:17.351Z,100.00
2023-04-29T05:06:45.345Z,100.00
2023-04-29T05:09:15.261Z,100.00
2023-04-29T05:11:43.513Z,100.00
2023-04-29T05:14:18.062Z,100.00
2023-04-29T05:16:46.842Z,100.00
2023-04-29T05:19:15.309Z,100.00
2023-04-29T05:21:43.410Z,100.00
2023-04-29T05:24:12.656Z,100.00
2023-04-29T05:26:43.651Z,100.00
2023-04-29T05:29:12.142Z,100.00
2023-04-29T05:31:48.834Z,100.00
2023-04-29T05:34:16.836Z,100.00
2023-04-29T05:36:44.713Z,100.00
2023-04-29T05:39:12.552Z,100.00
2023-04-29T05:41:42.060Z,100.00
2023-04-29T05:44:23.890Z,100.00
2023-04-29T05:46:51.940Z,100.00
2023-04-29T05:49:20.534Z,100.00
2023-04-29T05:51:48.367Z,100.00
2023-04-29T05:54:16.627Z,100.00
2023-04-29T05:56:47.734Z,100.00
2023-04-29T05:59:15.650Z,100.00
2023-04-29T06:01:51.086Z,100.00
2023-04-29T06:04:19.342Z,100.00
2023-04-29T06:07:13.569Z,100.00
2023-04-29T06:10:02.006Z,100.00
2023-04-29T06:12:32.907Z,100.00
2023-04-29T06:15:01.384Z,100.00
2023-04-29T06:17:29.767Z,100.00
2023-04-29T06:19:57.691Z,100.00
2023-04-29T06:22:25.535Z,100.00
2023-04-29T06:24:55.453Z,100.00
2023-04-29T06:27:34.937Z,99.14
2023-04-29T06:30:03.101Z,98.72
2023-04-29T06:32:31.354Z,98.19
2023-04-29T06:34:59.206Z,98.64
2023-04-29T06:37:31.978Z,98.23
2023-04-29T06:40:13.423Z,97.11
2023-04-29T06:43:06.700Z,96.30
2023-04-29T06:46:00.706Z,97.15
2023-04-29T06:48:35.403Z,97.46
2023-04-29T06:51:05.382Z,98.94
2023-04-29T06:53:37.228Z,95.97
2023-04-29T06:56:05.826Z,94.55
2023-04-29T06:58:35.088Z,94.92
2023-04-29T07:01:04.270Z,94.89
2023-04-29T07:03:32.390Z,94.05
2023-04-29T07:06:00.365Z,94.39
2023-04-29T07:08:28.762Z,93.33
2023-04-29T07:10:57.634Z,94.22
2023-04-29T07:13:26.571Z,89.62
2023-04-29T07:15:55.858Z,90.13
2023-04-29T07:18:23.908Z,90.05
2023-04-29T07:20:52.992Z,88.85
2023-04-29T07:23:20.970Z,88.09
2023-04-29T07:25:48.860Z,89.05
2023-04-29T07:28:18.316Z,88.28
2023-04-29T07:30:46.164Z,86.95
2023-04-29T07:33:17.256Z,87.62
2023-04-29T07:35:47.138Z,87.55
2023-04-29T07:38:15.733Z,88.05
2023-04-29T07:40:44.310Z,87.97
2023-04-29T07:43:13.565Z,87.11
2023-04-29T07:45:41.508Z,86.88
2023-04-29T07:48:09.364Z,86.27
2023-04-29T07:50:39.588Z,86.93
2023-04-29T07:53:08.791Z,87.37
2023-04-29T07:55:38.591Z,87.31
2023-04-29T07:58:08.133Z,86.67
2023-04-29T08:00:36.532Z,85.18
2023-04-29T08:03:04.607Z,85.12
2023-04-29T08:05:32.883Z,85.25
2023-04-29T08:08:03.145Z,84.35
2023-04-29T08:10:32.052Z,83.42
2023-04-29T08:13:00.390Z,83.17
2023-04-29T08:15:30.016Z,84.15
2023-04-29T08:17:57.884Z,83.85
2023-04-29T08:20:27.570Z,85.26
2023-04-29T08:22:55.942Z,85.47
2023-04-29T08:25:27.350Z,84.72
2023-04-29T08:27:55.354Z,86.17
2023-04-29T08:30:23.212Z,84.65
2023-04-29T08:32:52.357Z,85.03
2023-04-29T08:35:20.569Z,83.08
2023-04-29T08:37:48.748Z,82.50
2023-04-29T08:40:17.367Z,83.53
2023-04-29T08:42:48.984Z,82.71
2023-04-29T08:45:21.105Z,82.17
2023-04-29T08:47:49.788Z,81.79
2023-04-29T08:50:18.641Z,82.22
2023-04-29T08:52:46.589Z,80.55
2023-04-29T08:55:15.072Z,80.68
2023-04-29T08:57:45.740Z,80.81
2023-04-29T09:00:16.038Z,81.23
2023-04-29T09:02:48.694Z,82.19
2023-04-29T09:05:17.424Z,83.03
2023-04-29T09:07:46.383Z,83.07
2023-04-29T09:10:17.698Z,84.19
2023-04-29T09:12:46.168Z,83.38
2023-04-29T09:15:15.415Z,83.99
2023-04-29T09:17:45.641Z,82.01
2023-04-29T09:20:28.160Z,82.67
2023-04-29T09:22:57.557Z,81.53
2023-04-29T09:25:27.288Z,81.19
2023-04-29T09:27:55.864Z,82.83
2023-04-29T09:30:26.736Z,82.04
2023-04-29T09:33:08.854Z,81.79
2023-04-29T09:35:37.396Z,81.51
2023-04-29T09:38:13.513Z,82.12
2023-04-29T09:40:57.435Z,81.23
2023-04-29T09:43:26.799Z,82.21
2023-04-29T09:46:01.774Z,81.12
2023-04-29T09:48:36.406Z,81.21
2023-04-29T09:51:08.990Z,80.10
2023-04-29T09:53:38.985Z,80.38
2023-04-29T09:56:07.378Z,80.54
2023-04-29T09:58:38.028Z,80.95
2023-04-29T10:01:08.263Z,79.70
2023-04-29T10:03:38.130Z,78.55
2023-04-29T10:06:08.208Z,78.10
2023-04-29T10:08:36.952Z,78.22
2023-04-29T10:11:06.073Z,77.54
2023-04-29T10:13:38.213Z,77.31
2023-04-29T10:16:14.723Z,76.94
2023-04-29T10:18:45.978Z,78.08
2023-04-29T10:21:14.965Z,75.04
2023-04-29T10:23:45.059Z,75.79
2023-04-29T10:26:14.714Z,76.91
2023-04-29T10:28:46.108Z,72.89
2023-04-29T10:31:17.965Z,73.48
2023-04-29T10:33:48.050Z,73.61
2023-04-29T10:36:17.247Z,74.20
2023-04-29T10:38:50.853Z,74.11
2023-04-29T10:41:25.579Z,71.73
2023-04-29T10:43:53.845Z,71.91
2023-04-29T10:46:26.363Z,72.47
2023-04-29T10:48:59.544Z,70.45
2023-04-29T10:51:35.683Z,69.98
2023-04-29T10:54:09.274Z,69.94
2023-04-29T10:56:42.516Z,70.13
2023-04-29T10:59:12.756Z,70.24
2023-04-29T11:01:50.182Z,70.71
2023-04-29T11:04:19.210Z,70.36
2023-04-29T11:06:48.991Z,69.60
2023-04-29T11:09:21.211Z,68.56
2023-04-29T11:11:58.143Z,68.76
2023-04-29T11:14:27.954Z,68.14
2023-04-29T11:16:59.998Z,68.38
2023-04-29T11:19:32.874Z,68.39
2023-04-29T11:22:30.395Z,67.64
2023-04-29T11:25:00.498Z,67.88
2023-04-29T11:27:32.246Z,67.30
2023-04-29T11:30:01.433Z,67.74
2023-04-29T11:32:32.054Z,67.13
2023-04-29T11:35:09.286Z,67.29
2023-04-29T11:37:38.063Z,66.68
2023-04-29T11:40:07.830Z,66.71
2023-04-29T11:42:36.313Z,65.35
2023-04-29T11:45:04.585Z,66.33
2023-04-29T11:47:34.319Z,65.14
2023-04-29T11:50:06.865Z,66.46
2023-04-29T11:52:37.078Z,63.61
2023-04-29T11:55:05.376Z,62.71
2023-04-29T11:57:33.416Z,62.85
2023-04-29T12:00:02.424Z,61.37
2023-04-29T12:02:37.683Z,62.12
2023-04-29T12:05:08.508Z,60.99
2023-04-29T12:07:37.291Z,61.92
2023-04-29T12:10:09.673Z,61.91
2023-04-29T12:12:40.654Z,61.67
2023-04-29T12:15:10.837Z,62.17
2023-04-29T12:17:40.665Z,63.68
2023-04-29T12:20:10.570Z,63.28
2023-04-29T12:22:38.832Z,64.30
2023-04-29T12:25:08.346Z,65.96
2023-04-29T12:27:37.259Z,65.28
2023-04-29T12:30:09.607Z,66.49
2023-04-29T12:32:38.257Z,67.05
2023-04-29T12:35:16.989Z,66.79
2023-04-29T12:37:44.944Z,67.61
2023-04-29T12:40:15.222Z,67.04
2023-04-29T12:42:44.988Z,68.27
2023-04-29T12:45:27.845Z,68.01
2023-04-29T12:47:58.154Z,67.96
2023-04-29T12:50:33.262Z,68.89
2023-04-29T12:53:02.718Z,68.86
2023-04-29T12:55:30.755Z,70.48
2023-04-29T12:58:00.954Z,70.30
2023-04-29T13:00:30.092Z,70.28
2023-04-29T13:02:58.014Z,69.91
2023-04-29T13:05:26.121Z,70.55
2023-04-29T13:07:56.806Z,68.92
2023-04-29T13:10:24.748Z,70.46
2023-04-29T13:12:53.445Z,70.05
2023-04-29T13:15:22.509Z,69.61
2023-04-29T13:17:51.831Z,70.24
2023-04-29T13:20:20.646Z,69.83
2023-04-29T13:22:48.968Z,69.31
2023-04-29T13:25:18.842Z,69.51
2023-04-29T13:27:46.855Z,71.27
2023-04-29T13:30:15.339Z,69.63
2023-04-29T13:32:49.365Z,69.33
2023-04-29T13:35:22.355Z,70.43
2023-04-29T13:37:50.514Z,70.97
2023-04-29T13:40:21.204Z,71.15
2023-04-29T13:42:50.763Z,71.32
2023-04-29T13:45:30.534Z,70.67
2023-04-29T13:48:09.499Z,71.08
2023-04-29T13:56:42.062Z,71.42
2023-04-29T13:59:30.600Z,71.21
2023-04-29T14:04:01.417Z,69.87
2023-04-29T14:06:30.461Z,70.33
2023-04-29T14:08:59.262Z,70.45
2023-04-29T14:11:29.139Z,71.19
2023-04-29T14:13:57.340Z,70.85
2023-04-29T14:16:25.379Z,70.21
2023-04-29T14:18:53.333Z,70.47
2023-04-29T14:21:22.626Z,70.51
2023-04-29T14:23:50.642Z,70.86
2023-04-29T14:28:58.164Z,71.07
2023-04-29T14:31:28.039Z,71.82
2023-04-29T14:33:56.332Z,71.74
2023-04-29T14:36:24.419Z,71.40
2023-04-29T14:38:52.636Z,71.04
2023-04-29T14:41:21.684Z,70.92
2023-04-29T14:43:51.030Z,71.25
2023-04-29T14:46:18.967Z,70.73
2023-04-29T14:48:46.915Z,70.60
2023-04-29T14:51:15.089Z,71.08
2023-04-29T14:53:43.055Z,71.22
2023-04-29T14:56:11.013Z,71.58
2023-04-29T14:58:38.868Z,71.20
2023-04-29T15:01:08.970Z,70.90
2023-04-29T15:03:43.648Z,71.23
2023-04-29T15:06:13.405Z,71.17
2023-04-29T15:08:41.441Z,71.03
2023-04-29T15:11:09.507Z,71.52
2023-04-29T15:13:37.617Z,71.50
2023-04-29T15:16:07.373Z,71.24
2023-04-29T15:18:36.700Z,71.80
2023-04-29T15:21:04.720Z,71.51
2023-04-29T15:23:33.065Z,72.03
2023-04-29T15:26:01.131Z,71.46
2023-04-29T15:28:28.976Z,71.95
2023-04-29T15:30:56.863Z,72.93
2023-04-29T15:33:24.668Z,72.30
2023-04-29T15:35:54.187Z,72.50
2023-04-29T15:38:21.987Z,73.25
2023-04-29T15:40:49.936Z,73.38
2023-04-29T15:43:17.788Z,73.28
2023-04-29T15:45:46.031Z,73.82
2023-04-29T15:48:14.744Z,73.62
2023-04-29T15:50:43.032Z,74.04
2023-04-29T15:53:12.738Z,74.27
2023-04-29T15:55:40.981Z,73.96
2023-04-29T15:58:08.850Z,74.21
2023-04-29T16:00:38.755Z,74.71
2023-04-29T16:03:06.765Z,75.57
2023-04-29T16:05:34.633Z,74.90
2023-04-29T16:08:02.458Z,75.77
2023-04-29T16:10:32.410Z,75.29
2023-04-29T16:13:00.760Z,75.09
2023-04-29T16:15:29.118Z,75.23
2023-04-29T16:17:57.229Z,74.89
2023-04-29T16:20:25.559Z,75.58
2023-04-29T16:22:53.494Z,75.75
2023-04-29T16:25:21.289Z,75.75
2023-04-29T16:27:50.535Z,75.79
2023-04-29T16:30:18.405Z,75.50
2023-04-29T16:32:46.275Z,75.55
2023-04-29T16:35:14.242Z,75.15
2023-04-29T16:37:42.290Z,75.63
2023-04-29T16:40:11.362Z,75.08
2023-04-29T16:42:39.173Z,75.46
2023-04-29T16:45:11.125Z,75.02
2023-04-29T16:47:40.870Z,75.58
2023-04-29T16:50:09.629Z,75.02
2023-04-29T16:52:37.657Z,75.70
2023-04-29T16:55:06.120Z,75.58
2023-04-29T16:57:34.475Z,76.39
2023-04-29T17:00:03.091Z,76.39
2023-04-29T17:02:32.543Z,76.81
2023-04-29T17:05:01.109Z,75.66
2023-04-29T17:07:30.114Z,75.33
2023-04-29T17:09:58.053Z,76.24
2023-04-29T17:12:26.122Z,75.63
2023-04-29T17:14:54.573Z,76.19
2023-04-29T17:17:22.487Z,75.79
2023-04-29T17:19:52.183Z,76.02
2023-04-29T17:22:20.423Z,75.31
2023-04-29T17:24:48.622Z,75.52
2023-04-29T17:27:17.964Z,75.32
2023-04-29T17:29:46.272Z,76.31
2023-04-29T17:32:17.294Z,75.49
2023-04-29T17:34:45.253Z,74.92
2023-04-29T17:37:14.443Z,75.52
2023-04-29T17:39:42.260Z,75.67
2023-04-29T17:42:10.095Z,76.48
2023-04-29T17:44:38.092Z,75.53
2023-04-29T17:47:06.127Z,74.99
2023-04-29T17:49:34.723Z,76.51
2023-04-29T17:52:04.109Z,75.49
2023-04-29T17:54:33.466Z,75.90
2023-04-29T17:57:02.175Z,75.74
2023-04-29T17:59:30.803Z,75.69
2023-04-29T18:01:58.798Z,75.57
2023-04-29T18:04:26.917Z,75.59
2023-04-29T18:06:55.211Z,75.20
2023-04-29T18:09:23.426Z,76.05
2023-04-29T18:11:54.035Z,76.28
2023-04-29T18:14:22.993Z,75.89
2023-04-29T18:16:52.693Z,75.76
2023-04-29T18:19:21.010Z,76.62
2023-04-29T18:21:49.113Z,76.71
2023-04-29T18:24:17.024Z,76.03
2023-04-29T18:26:44.862Z,76.32
2023-04-29T18:29:14.611Z,76.22
2023-04-29T18:31:43.341Z,76.01
2023-04-29T18:34:11.289Z,76.43
2023-04-29T18:36:39.735Z,77.09
2023-04-29T18:39:09.870Z,77.25
2023-04-29T18:41:39.017Z,77.28
2023-04-29T18:44:07.002Z,77.17
2023-04-29T18:46:36.945Z,76.88
2023-04-29T18:49:04.821Z,76.59
2023-04-29T18:51:32.608Z,76.17
2023-04-29T18:54:00.436Z,76.32
2023-04-29T18:56:28.352Z,76.13
2023-04-29T18:58:56.413Z,76.49
2023-04-29T19:01:24.345Z,76.72
2023-04-29T19:03:55.433Z,76.55
2023-04-29T19:06:24.075Z,76.77
2023-04-29T19:08:52.653Z,77.27
2023-04-29T19:11:22.481Z,77.71
2023-04-29T19:13:50.341Z,77.52
2023-04-29T19:16:18.550Z,78.17
2023-04-29T19:18:47.471Z,78.52
2023-04-29T19:21:17.283Z,78.86
2023-04-29T19:23:45.484Z,78.97
2023-04-29T19:26:13.570Z,79.80
2023-04-29T19:28:41.653Z,79.97
2023-04-29T19:31:11.456Z,79.87
2023-04-29T19:33:39.329Z,80.39
2023-04-29T19:36:07.415Z,80.65
2023-04-29T19:38:38.420Z,80.83
2023-04-29T19:41:06.341Z,80.20
2023-04-29T19:43:34.204Z,80.40
2023-04-29T19:46:02.875Z,80.92
2023-04-29T19:48:30.820Z,80.97
2023-04-29T19:51:00.121Z,81.06
2023-04-29T19:53:29.908Z,81.47
2023-04-29T19:55:59.288Z,81.87
2023-04-29T19:58:27.522Z,82.00
2023-04-29T20:00:55.426Z,82.36
2023-04-29T20:03:23.474Z,82.33
2023-04-29T20:05:51.591Z,82.57
2023-04-29T20:08:19.505Z,83.05
2023-04-29T20:10:48.290Z,82.72
2023-04-29T20:13:17.604Z,82.66
2023-04-29T20:15:45.678Z,82.76
2023-04-29T20:18:14.299Z,82.79
2023-04-29T20:20:42.691Z,83.01
2023-04-29T20:23:11.591Z,83.17
2023-04-29T20:25:39.437Z,83.13
2023-04-29T20:28:08.924Z,83.68
2023-04-29T20:30:38.320Z,83.41
2023-04-29T20:33:07.831Z,83.32
2023-04-29T20:35:37.112Z,83.38
2023-04-29T20:38:06.232Z,83.53
2023-04-29T20:40:34.667Z,83.45
2023-04-29T20:43:03.217Z,83.58
2023-04-29T20:45:31.389Z,83.98
2023-04-29T20:48:00.649Z,84.07
2023-04-29T20:50:28.987Z,84.24
2023-04-29T20:52:56.792Z,84.51
2023-04-29T20:55:24.942Z,84.18
2023-04-29T20:57:52.780Z,85.00
2023-04-29T21:00:20.644Z,84.98
2023-04-29T21:02:48.691Z,85.64
2023-04-29T21:05:18.136Z,84.66
2023-04-29T21:07:46.271Z,84.60
2023-04-29T21:10:14.476Z,85.18
2023-04-29T21:12:42.668Z,85.11
2023-04-29T21:15:11.370Z,84.78
2023-04-29T21:17:39.968Z,84.94
2023-04-29T21:20:09.703Z,85.20
2023-04-29T21:22:39.073Z,84.87
2023-04-29T21:25:08.071Z,85.06
2023-04-29T21:27:36.523Z,85.16
2023-04-29T21:30:05.780Z,85.20
2023-04-29T21:32:33.913Z,85.32
2023-04-29T21:35:02.022Z,85.57
2023-04-29T21:37:30.312Z,85.15
2023-04-29T21:40:00.326Z,86.12
2023-04-29T21:42:28.888Z,86.35
2023-04-29T21:44:59.657Z,85.45
2023-04-29T21:47:29.013Z,85.59
2023-04-29T21:49:57.236Z,85.04
2023-04-29T21:52:26.068Z,85.15
2023-04-29T21:54:55.193Z,85.58
2023-04-29T21:57:35.602Z,85.92
2023-04-29T22:00:21.669Z,85.47
2023-04-29T22:02:49.642Z,85.64
2023-04-29T22:05:17.791Z,85.11
2023-04-29T22:07:46.037Z,85.84
2023-04-29T22:10:13.903Z,85.72
2023-04-29T22:12:43.126Z,85.99
2023-04-29T22:15:24.527Z,85.63
2023-04-29T22:17:55.946Z,86.18
2023-04-29T22:20:24.250Z,85.91
2023-04-29T22:22:52.398Z,85.77
2023-04-29T22:25:22.233Z,85.44
2023-04-29T22:27:52.485Z,86.52
2023-04-29T22:30:20.847Z,86.36
2023-04-29T22:32:49.143Z,86.55
2023-04-29T22:35:18.789Z,86.25
2023-04-29T22:37:48.594Z,86.89
2023-04-29T22:40:16.425Z,86.41
2023-04-29T22:42:44.368Z,87.00
2023-04-29T22:45:13.670Z,87.16
2023-04-29T22:47:41.944Z,86.68
2023-04-29T22:50:10.888Z,86.15
2023-04-29T22:52:39.108Z,86.17
2023-04-29T22:55:07.850Z,86.42
2023-04-29T22:57:35.709Z,86.27
2023-04-29T23:00:04.110Z,86.45
2023-04-29T23:02:33.367Z,86.40
2023-04-29T23:05:01.313Z,86.49
2023-04-29T23:07:29.204Z,86.22
2023-04-29T23:09:57.205Z,87.00
2023-04-29T23:12:25.623Z,86.50
2023-04-29T23:14:53.903Z,86.62
2023-04-29T23:17:21.689Z,86.29
2023-04-29T23:19:50.939Z,86.56
2023-04-29T23:22:19.200Z,86.67
2023-04-29T23:24:47.060Z,86.93
2023-04-29T23:27:14.882Z,86.80
2023-04-29T23:29:43.178Z,86.43
2023-04-29T23:32:11.227Z,86.41
2023-04-29T23:34:40.411Z,86.99
2023-04-29T23:37:09.631Z,86.57
2023-04-29T23:39:37.458Z,87.27
2023-04-29T23:42:05.438Z,87.03
2023-04-29T23:44:33.424Z,87.22
2023-04-29T23:47:01.257Z,87.31
2023-04-29T23:49:29.183Z,87.51
2023-04-29T23:51:57.636Z,88.34
2023-04-29T23:54:27.395Z,87.84
2023-04-29T23:56:55.265Z,88.06
2023-04-29T23:59:23.107Z,88.53
